createdAt,value
2018-03-31T00:00:57.081Z,99845.39
2018-03-31T00:03:24.520Z,99844.97
2018-03-31T00:05:51.080Z,99841.06
2018-03-31T00:08:17.708Z,99837.33
2018-03-31T00:10:45.171Z,99841.06
2018-03-31T00:13:11.812Z,99838.15
2018-03-31T00:15:38.565Z,99835.83
2018-03-31T00:18:05.094Z,99827.77
2018-03-31T00:20:31.838Z,99830.69
2018-03-31T00:22:58.375Z,99830.69
2018-03-31T00:25:25.037Z,99830.47
2018-03-31T00:27:53.272Z,99832.40
2018-03-31T00:30:19.984Z,99827.03
2018-03-31T00:32:48.714Z,99831.46
2018-03-31T00:35:15.371Z,99818.52
2018-03-31T00:37:42.231Z,99826.66
2018-03-31T00:40:09.510Z,99824.42
2018-03-31T00:42:36.239Z,99826.23
2018-03-31T00:45:02.942Z,99826.91
2018-03-31T00:47:30.430Z,99819.93
2018-03-31T00:49:57.252Z,99819.02
2018-03-31T00:52:23.940Z,99812.69
2018-03-31T00:54:50.589Z,99813.53
2018-03-31T00:57:18.100Z,99819.27
2018-03-31T00:59:44.694Z,99827.16
2018-03-31T01:02:11.230Z,99829.73
2018-03-31T01:04:37.871Z,99826.05
2018-03-31T01:07:05.233Z,99826.98
2018-03-31T01:09:32.567Z,99823.81
2018-03-31T01:11:59.163Z,99824.07
2018-03-31T01:14:27.208Z,99826.22
2018-03-31T01:16:53.955Z,99826.30
2018-03-31T01:19:20.504Z,99829.89
2018-03-31T01:21:47.151Z,99834.02
2018-03-31T01:24:14.711Z,99834.70
2018-03-31T01:26:41.953Z,99834.61
2018-03-31T01:29:08.603Z,99834.78
2018-03-31T01:31:35.247Z,99831.70
2018-03-31T01:34:02.416Z,99832.94
2018-03-31T01:36:28.967Z,99835.42
2018-03-31T01:38:56.260Z,99831.69
2018-03-31T01:41:23.631Z,99826.20
2018-03-31T01:43:50.337Z,99829.11
2018-03-31T01:46:16.906Z,99834.25
2018-03-31T01:48:44.293Z,99834.93
2018-03-31T01:51:10.951Z,99834.06
2018-03-31T01:53:37.497Z,99833.08
2018-03-31T01:56:04.130Z,99830.84
2018-03-31T01:58:31.081Z,99826.69
2018-03-31T02:00:57.698Z,99826.17
2018-03-31T02:03:24.227Z,99808.95
2018-03-31T02:05:51.017Z,99833.49
2018-03-31T02:08:17.935Z,99833.59
2018-03-31T02:10:44.514Z,99833.58
2018-03-31T02:13:11.964Z,99835.71
2018-03-31T02:15:39.331Z,99839.36
2018-03-31T02:18:05.877Z,99835.55
2018-03-31T02:20:32.529Z,99836.06
2018-03-31T02:23:00.036Z,99840.39
2018-03-31T02:25:26.730Z,99843.03
2018-03-31T02:27:53.440Z,99840.69
2018-03-31T02:30:20.025Z,99841.94
2018-03-31T02:32:47.555Z,99842.45
2018-03-31T02:35:14.220Z,99843.84
2018-03-31T02:37:40.846Z,99837.38
2018-03-31T02:40:08.403Z,99842.92
2018-03-31T02:42:35.284Z,99840.75
2018-03-31T02:45:02.017Z,99839.67
2018-03-31T02:47:28.684Z,99837.02
2018-03-31T02:49:56.015Z,99836.28
2018-03-31T02:52:22.680Z,99833.11
2018-03-31T02:54:49.504Z,99831.02
2018-03-31T02:57:16.871Z,99831.23
2018-03-31T02:59:43.510Z,99838.23
2018-03-31T03:02:10.163Z,99827.11
2018-03-31T03:04:37.729Z,99834.67
2018-03-31T03:07:04.374Z,99759.98
2018-03-31T03:09:31.006Z,99840.80
2018-03-31T03:11:58.331Z,99839.04
2018-03-31T03:14:24.820Z,99842.73
2018-03-31T03:16:51.451Z,99844.36
2018-03-31T03:19:18.023Z,99844.36
2018-03-31T03:21:45.559Z,99851.34
2018-03-31T03:24:12.298Z,99846.99
2018-03-31T03:26:38.942Z,99842.88
2018-03-31T03:29:06.223Z,99846.09
2018-03-31T03:31:33.578Z,99840.78
2018-03-31T03:34:00.109Z,99835.81
2018-03-31T03:36:27.492Z,99843.94
2018-03-31T03:38:54.821Z,99842.17
2018-03-31T03:41:21.488Z,99838.62
2018-03-31T03:43:49.085Z,99845.42
2018-03-31T03:46:15.676Z,99842.50
2018-03-31T03:48:42.423Z,99837.39
2018-03-31T03:51:09.773Z,99836.80
2018-03-31T03:53:37.173Z,99836.16
2018-03-31T03:56:04.562Z,99840.67
2018-03-31T03:58:31.654Z,99838.05
2018-03-31T04:00:58.415Z,99842.84
2018-03-31T04:03:25.001Z,99845.75
2018-03-31T04:05:51.688Z,99847.59
2018-03-31T04:08:18.729Z,99852.89
2018-03-31T04:10:45.515Z,99854.94
2018-03-31T04:13:12.839Z,99859.51
2018-03-31T04:15:40.418Z,99854.61
2018-03-31T04:18:07.034Z,99851.45
2018-03-31T04:20:33.646Z,99856.10
2018-03-31T04:23:00.443Z,99863.14
2018-03-31T04:25:27.669Z,99865.38
2018-03-31T04:27:54.752Z,99869.36
2018-03-31T04:30:22.780Z,99867.95
2018-03-31T04:32:49.493Z,99871.59
2018-03-31T04:35:16.940Z,99874.74
2018-03-31T04:37:45.133Z,99874.35
2018-03-31T04:40:12.564Z,99876.83
2018-03-31T04:42:39.314Z,99874.70
2018-03-31T04:45:06.682Z,99872.42
2018-03-31T04:47:33.301Z,99873.48
2018-03-31T04:49:59.963Z,99874.78
2018-03-31T04:52:26.735Z,99878.02
2018-03-31T04:54:54.276Z,99880.34
2018-03-31T04:57:21.031Z,99884.98
2018-03-31T04:59:47.646Z,99881.11
2018-03-31T05:02:14.972Z,99881.66
2018-03-31T05:04:41.565Z,99890.44
2018-03-31T05:07:08.305Z,99895.09
2018-03-31T05:09:35.050Z,99894.91
2018-03-31T05:12:02.621Z,99896.09
2018-03-31T05:14:29.380Z,99901.49
2018-03-31T05:16:56.012Z,99903.70
2018-03-31T05:19:23.353Z,99905.92
2018-03-31T05:21:50.020Z,99903.94
2018-03-31T05:24:16.651Z,99895.55
2018-03-31T05:26:43.300Z,99886.58
2018-03-31T05:29:10.706Z,99891.22
2018-03-31T05:31:37.306Z,99893.16
2018-03-31T05:34:03.942Z,99902.92
2018-03-31T05:36:31.429Z,99897.49
2018-03-31T05:38:58.757Z,99904.14
2018-03-31T05:41:25.458Z,99908.74
2018-03-31T05:43:52.979Z,99906.99
2018-03-31T05:46:20.311Z,99904.09
2018-03-31T05:48:47.089Z,99901.23
2018-03-31T05:51:14.311Z,99902.87
2018-03-31T05:53:41.080Z,99907.59
2018-03-31T05:56:07.718Z,99915.14
2018-03-31T05:58:34.373Z,99917.56
2018-03-31T06:01:01.732Z,99917.17
2018-03-31T06:03:28.370Z,99924.52
2018-03-31T06:05:55.095Z,99923.16
2018-03-31T06:08:22.732Z,99922.75
2018-03-31T06:10:49.437Z,99928.31
2018-03-31T06:13:16.096Z,99934.31
2018-03-31T06:15:44.390Z,99931.90
2018-03-31T06:18:12.037Z,99928.32
2018-03-31T06:20:38.663Z,99930.52
2018-03-31T06:23:06.136Z,99935.03
2018-03-31T06:25:32.886Z,99930.41
2018-03-31T06:27:59.489Z,99929.07
2018-03-31T06:30:26.820Z,99929.78
2018-03-31T06:32:53.510Z,99932.70
2018-03-31T06:35:20.384Z,99939.28
2018-03-31T06:37:46.963Z,99945.89
2018-03-31T06:40:15.201Z,99939.78
2018-03-31T06:42:43.457Z,99944.63
2018-03-31T06:45:10.808Z,99944.42
2018-03-31T06:47:38.268Z,99940.06
2018-03-31T06:50:06.065Z,99946.91
2018-03-31T06:52:32.812Z,99951.73
2018-03-31T06:54:59.411Z,99949.72
2018-03-31T06:57:27.675Z,99948.06
2018-03-31T06:59:54.374Z,99946.39
2018-03-31T07:02:21.962Z,99943.45
2018-03-31T07:04:49.615Z,99957.17
2018-03-31T07:07:16.255Z,99962.11
2018-03-31T07:09:42.890Z,99965.70
2018-03-31T07:12:09.646Z,99958.34
2018-03-31T07:14:37.465Z,99962.69
2018-03-31T07:17:04.122Z,99954.53
2018-03-31T07:19:30.817Z,99960.58
2018-03-31T07:21:59.076Z,99972.53
2018-03-31T07:24:25.690Z,99980.89
2018-03-31T07:26:52.520Z,99970.77
2018-03-31T07:29:19.203Z,99970.90
2018-03-31T07:31:46.656Z,99966.78
2018-03-31T07:34:13.434Z,99953.23
2018-03-31T07:36:40.176Z,99973.05
2018-03-31T07:39:07.537Z,99971.09
2018-03-31T07:41:34.744Z,99971.47
2018-03-31T07:44:01.296Z,99965.67
2018-03-31T07:46:27.953Z,99968.16
2018-03-31T07:48:55.524Z,99963.59
2018-03-31T07:51:22.038Z,99967.33
2018-03-31T07:53:48.773Z,99969.16
2018-03-31T07:56:15.359Z,99971.73
2018-03-31T07:58:42.824Z,99964.16
2018-03-31T08:01:09.604Z,99955.84
2018-03-31T08:03:37.060Z,99967.19
2018-03-31T08:06:04.198Z,99972.84
2018-03-31T08:08:30.833Z,99972.63
2018-03-31T08:10:57.606Z,99974.27
2018-03-31T08:13:25.840Z,99978.55
2018-03-31T08:15:52.364Z,99979.32
2018-03-31T08:18:18.987Z,99984.72
2018-03-31T08:20:45.694Z,99986.78
2018-03-31T08:23:12.836Z,99986.27
2018-03-31T08:25:39.591Z,99983.55
2018-03-31T08:28:06.235Z,99988.10
2018-03-31T08:30:34.100Z,99991.45
2018-03-31T08:33:00.696Z,99984.98
2018-03-31T08:35:27.404Z,99994.18
2018-03-31T08:37:55.529Z,100001.83
2018-03-31T08:40:23.304Z,100003.69
2018-03-31T08:42:49.975Z,100003.61
2018-03-31T08:45:17.541Z,100003.08
2018-03-31T08:47:45.313Z,100000.42
2018-03-31T08:50:11.900Z,100006.26
2018-03-31T08:52:39.423Z,100004.78
2018-03-31T08:55:06.058Z,100013.37
2018-03-31T08:57:32.703Z,100011.61
2018-03-31T09:00:00.077Z,100022.80
2018-03-31T09:02:27.421Z,100012.81
2018-03-31T09:04:54.164Z,100020.42
2018-03-31T09:07:20.774Z,100020.18
2018-03-31T09:09:48.273Z,100023.37
2018-03-31T09:12:14.904Z,100020.16
2018-03-31T09:14:41.575Z,100032.63
2018-03-31T09:17:08.314Z,100032.91
2018-03-31T09:19:35.999Z,100023.49
2018-03-31T09:22:03.317Z,100024.27
2018-03-31T09:24:30.092Z,100013.45
2018-03-31T09:26:57.850Z,100020.45
2018-03-31T09:29:24.511Z,100024.76
2018-03-31T09:31:52.615Z,100028.19
2018-03-31T09:34:20.129Z,100021.70
2018-03-31T09:36:46.786Z,100035.59
2018-03-31T09:39:14.352Z,100026.95
2018-03-31T09:41:41.806Z,100034.34
2018-03-31T09:44:08.455Z,100024.13
2018-03-31T09:46:35.153Z,100028.68
2018-03-31T09:49:01.741Z,100018.88
2018-03-31T09:51:29.387Z,100019.78
2018-03-31T09:53:56.164Z,100024.52
2018-03-31T09:56:23.476Z,100021.20
2018-03-31T09:58:51.118Z,100027.34
2018-03-31T10:01:17.612Z,100026.09
2018-03-31T10:03:44.219Z,100024.86
2018-03-31T10:06:10.747Z,100024.01
2018-03-31T10:08:38.076Z,100019.87
2018-03-31T10:11:05.506Z,100028.50
2018-03-31T10:13:32.030Z,100020.61
2018-03-31T10:15:59.498Z,100024.95
2018-03-31T10:18:26.116Z,100021.83
2018-03-31T10:20:52.690Z,100018.55
2018-03-31T10:23:19.353Z,100021.96
2018-03-31T10:25:46.989Z,100018.16
2018-03-31T10:28:13.652Z,100020.83
2018-03-31T10:30:41.604Z,100026.18
2018-03-31T10:33:08.239Z,100024.89
2018-03-31T10:35:35.043Z,100029.57
2018-03-31T10:38:02.964Z,100020.39
2018-03-31T10:40:29.640Z,100028.14
2018-03-31T10:42:57.048Z,100030.44
2018-03-31T10:45:24.346Z,100020.94
2018-03-31T10:47:51.021Z,100027.61
2018-03-31T10:50:18.474Z,100022.22
2018-03-31T10:52:46.125Z,100020.26
2018-03-31T10:55:12.948Z,100027.52
2018-03-31T10:57:39.509Z,100021.96
2018-03-31T11:00:06.273Z,100021.31
2018-03-31T11:02:33.594Z,100022.69
2018-03-31T11:05:00.404Z,100024.91
2018-03-31T11:07:27.007Z,100024.30
2018-03-31T11:09:53.652Z,100024.47
2018-03-31T11:12:21.120Z,100028.30
2018-03-31T11:14:48.465Z,100030.51
2018-03-31T11:17:15.071Z,100034.23
2018-03-31T11:19:42.588Z,100027.28
2018-03-31T11:22:09.338Z,100030.41
2018-03-31T11:24:36.705Z,100031.36
2018-03-31T11:27:05.092Z,100028.81
2018-03-31T11:29:32.425Z,100021.61
2018-03-31T11:31:59.022Z,100022.55
2018-03-31T11:34:26.080Z,100029.59
2018-03-31T11:36:52.868Z,100028.58
2018-03-31T11:39:19.611Z,100029.02
2018-03-31T11:41:47.091Z,100031.53
2018-03-31T11:44:13.821Z,100034.55
2018-03-31T11:46:40.580Z,100033.00
2018-03-31T11:49:08.009Z,100030.25
2018-03-31T11:51:34.954Z,100032.09
2018-03-31T11:54:01.725Z,100034.20
2018-03-31T11:56:29.166Z,100032.23
2018-03-31T11:58:56.062Z,100036.34
2018-03-31T12:01:22.997Z,100038.94
2018-03-31T12:03:50.547Z,100037.87
2018-03-31T12:06:17.091Z,100029.55
2018-03-31T12:08:43.737Z,100032.61
2018-03-31T12:11:11.055Z,100040.56
2018-03-31T12:13:37.739Z,100045.23
2018-03-31T12:16:04.381Z,100046.99
2018-03-31T12:18:31.952Z,100039.61
2018-03-31T12:20:58.630Z,100035.09
2018-03-31T12:23:25.228Z,100044.14
2018-03-31T12:25:52.813Z,100040.30
2018-03-31T12:28:19.318Z,100046.72
2018-03-31T12:30:45.980Z,100042.05
2018-03-31T12:33:13.366Z,100043.27
2018-03-31T12:35:40.749Z,100038.02
2018-03-31T12:38:07.345Z,100037.70
2018-03-31T12:40:34.559Z,100035.83
2018-03-31T12:43:01.378Z,100038.45
2018-03-31T12:45:28.812Z,100040.69
2018-03-31T12:47:56.258Z,100046.20
2018-03-31T12:50:23.017Z,100045.66
2018-03-31T12:52:49.768Z,100039.07
2018-03-31T12:55:17.307Z,100033.06
2018-03-31T12:57:43.936Z,100036.02
2018-03-31T13:00:10.620Z,100041.38
2018-03-31T13:02:38.692Z,100042.38
2018-03-31T13:05:06.757Z,100041.38
2018-03-31T13:07:33.402Z,100041.75
2018-03-31T13:10:01.077Z,100044.48
2018-03-31T13:12:28.469Z,100036.64
2018-03-31T13:14:55.297Z,100040.18
2018-03-31T13:17:22.629Z,100045.06
2018-03-31T13:19:49.267Z,100042.13
2018-03-31T13:22:15.878Z,100047.53
2018-03-31T13:24:42.579Z,100045.91
2018-03-31T13:27:09.837Z,100038.70
2018-03-31T13:29:36.466Z,100030.34
2018-03-31T13:32:03.031Z,100033.26
2018-03-31T13:34:30.433Z,100029.58
2018-03-31T13:36:57.013Z,100033.26
2018-03-31T13:39:23.533Z,100034.36
2018-03-31T13:41:50.098Z,100039.41
2018-03-31T13:44:16.806Z,100030.87
2018-03-31T13:46:43.873Z,100027.19
2018-03-31T13:49:10.612Z,100030.73
2018-03-31T13:51:37.392Z,100033.44
2018-03-31T13:54:04.923Z,100031.84
2018-03-31T13:56:32.619Z,100031.48
2018-03-31T13:58:59.240Z,100025.14
2018-03-31T14:01:26.827Z,100026.33
2018-03-31T14:03:53.451Z,100026.57
2018-03-31T14:06:20.137Z,100021.59
2018-03-31T14:08:47.573Z,100031.27
2018-03-31T14:11:14.940Z,100030.39
2018-03-31T14:13:41.696Z,100032.59
2018-03-31T14:16:08.317Z,100039.12
2018-03-31T14:18:35.317Z,100035.57
2018-03-31T14:21:02.107Z,100039.17
2018-03-31T14:23:28.884Z,100035.16
2018-03-31T14:25:56.330Z,100045.30
2018-03-31T14:28:23.185Z,100041.80
2018-03-31T14:30:49.785Z,100036.70
2018-03-31T14:33:16.672Z,100035.36
2018-03-31T14:35:44.944Z,100033.97
2018-03-31T14:38:11.600Z,100029.90
2018-03-31T14:40:39.501Z,100032.44
2018-03-31T14:43:06.948Z,100032.35
2018-03-31T14:45:34.282Z,100036.02
2018-03-31T14:48:01.375Z,100031.99
2018-03-31T14:50:29.207Z,100038.55
2018-03-31T14:52:56.545Z,100033.91
2018-03-31T14:55:23.258Z,100028.80
2018-03-31T14:57:49.966Z,100021.49
2018-03-31T15:00:17.423Z,100028.23
2018-03-31T15:02:44.005Z,100026.96
2018-03-31T15:05:10.609Z,100018.80
2018-03-31T15:07:38.896Z,100016.30
2018-03-31T15:10:05.542Z,100028.38
2018-03-31T15:12:32.170Z,100027.83
2018-03-31T15:14:58.681Z,100026.47
2018-03-31T15:17:26.212Z,100027.95
2018-03-31T15:19:52.824Z,100025.38
2018-03-31T15:22:20.453Z,100022.05
2018-03-31T15:24:47.132Z,100017.08
2018-03-31T15:27:14.596Z,100005.70
2018-03-31T15:29:41.375Z,100003.62
2018-03-31T15:32:08.802Z,100009.84
2018-03-31T15:34:36.315Z,100009.17
2018-03-31T15:37:02.909Z,100017.50
2018-03-31T15:39:29.544Z,100017.26
2018-03-31T15:41:56.333Z,100020.98
2018-03-31T15:44:24.158Z,100024.03
2018-03-31T15:46:50.942Z,100016.23
2018-03-31T15:49:18.240Z,100017.89
2018-03-31T15:51:45.975Z,100012.83
2018-03-31T15:54:12.477Z,100011.52
2018-03-31T15:56:39.341Z,100015.60
2018-03-31T15:59:06.632Z,100014.13
2018-03-31T16:01:33.449Z,100021.78
2018-03-31T16:04:00.074Z,100022.84
2018-03-31T16:06:27.749Z,100018.72
2018-03-31T16:08:55.140Z,100021.09
2018-03-31T16:11:21.856Z,100025.31
2018-03-31T16:13:48.385Z,100028.08
2018-03-31T16:16:15.237Z,100029.38
2018-03-31T16:18:42.592Z,100033.87
2018-03-31T16:21:09.367Z,100052.91
2018-03-31T16:23:36.820Z,100053.63
2018-03-31T16:26:04.500Z,100072.03
2018-03-31T16:28:31.820Z,100077.84
2018-03-31T16:30:58.480Z,100082.29
2018-03-31T16:33:25.528Z,100103.14
2018-03-31T16:35:52.219Z,100114.63
2018-03-31T16:38:18.939Z,100125.23
2018-03-31T16:40:46.330Z,100128.85
2018-03-31T16:43:12.904Z,100108.08
2018-03-31T16:45:39.504Z,100099.27
2018-03-31T16:48:06.109Z,100078.03
2018-03-31T16:50:34.168Z,100071.44
2018-03-31T16:53:00.686Z,100074.45
2018-03-31T16:55:27.392Z,100073.30
2018-03-31T16:57:54.829Z,100068.52
2018-03-31T17:00:22.189Z,100079.77
2018-03-31T17:02:48.829Z,100088.05
2018-03-31T17:05:16.104Z,100093.59
2018-03-31T17:07:42.825Z,100099.72
2018-03-31T17:10:09.488Z,100102.68
2018-03-31T17:12:37.032Z,100107.40
2018-03-31T17:15:03.584Z,100108.59
2018-03-31T17:17:30.335Z,100110.94
2018-03-31T17:19:57.377Z,100114.47
2018-03-31T17:22:24.090Z,100126.45
2018-03-31T17:24:50.784Z,100132.63
2018-03-31T17:27:17.255Z,100134.64
2018-03-31T17:29:44.768Z,100142.46
2018-03-31T17:32:11.284Z,100149.53
2018-03-31T17:34:38.065Z,100152.16
2018-03-31T17:37:05.569Z,100160.08
2018-03-31T17:39:32.117Z,100165.67
2018-03-31T17:41:58.808Z,100172.55
2018-03-31T17:44:25.445Z,100175.16
2018-03-31T17:46:52.879Z,100176.19
2018-03-31T17:49:19.661Z,100185.25
2018-03-31T17:51:46.402Z,100174.34
2018-03-31T17:54:13.867Z,100171.89
2018-03-31T17:56:40.540Z,100168.87
2018-03-31T17:59:07.837Z,100173.73
2018-03-31T18:01:35.308Z,100175.59
2018-03-31T18:04:01.988Z,100167.14
2018-03-31T18:06:28.771Z,100169.23
2018-03-31T18:08:55.473Z,100180.14
2018-03-31T18:11:22.308Z,100181.77
2018-03-31T18:13:48.939Z,100175.30
2018-03-31T18:16:15.599Z,100173.47
2018-03-31T18:18:42.192Z,100176.39
2018-03-31T18:21:09.504Z,100181.88
2018-03-31T18:23:36.250Z,100185.49
2018-03-31T18:26:02.880Z,100177.45
2018-03-31T18:28:29.502Z,100182.61
2018-03-31T18:30:56.980Z,100184.58
2018-03-31T18:33:23.664Z,100183.89
2018-03-31T18:35:50.984Z,100191.23
2018-03-31T18:38:17.646Z,100188.39
2018-03-31T18:40:45.007Z,100201.13
2018-03-31T18:43:11.677Z,100198.53
2018-03-31T18:45:39.025Z,100202.98
2018-03-31T18:48:06.581Z,100206.98
2018-03-31T18:50:33.232Z,100211.13
2018-03-31T18:53:00.573Z,100216.09
2018-03-31T18:55:27.236Z,100217.20
2018-03-31T18:57:54.159Z,100220.57
2018-03-31T19:00:20.716Z,100226.59
2018-03-31T19:02:48.068Z,100224.40
2018-03-31T19:05:15.328Z,100224.27
2018-03-31T19:07:42.189Z,100225.22
2018-03-31T19:10:08.885Z,100233.87
2018-03-31T19:12:36.527Z,100238.11
2018-03-31T19:15:03.028Z,100234.67
2018-03-31T19:17:29.667Z,100246.16
2018-03-31T19:19:56.213Z,100242.25
2018-03-31T19:22:23.678Z,100251.19
2018-03-31T19:24:56.464Z,100254.63
2018-03-31T19:27:22.990Z,100252.22
2018-03-31T19:29:50.618Z,100252.25
2018-03-31T19:32:17.287Z,100256.88
2018-03-31T19:34:43.955Z,100258.18
2018-03-31T19:37:10.605Z,100261.86
2018-03-31T19:39:43.860Z,100270.26
2018-03-31T19:42:10.543Z,100265.22
2018-03-31T19:44:37.110Z,100270.20
2018-03-31T19:47:04.629Z,100265.61
2018-03-31T19:49:31.381Z,100264.33
2018-03-31T19:51:58.036Z,100266.31
2018-03-31T19:54:26.212Z,100268.63
2018-03-31T19:56:52.860Z,100270.05
2018-03-31T19:59:19.501Z,100262.97
2018-03-31T20:01:46.095Z,100262.28
2018-03-31T20:04:13.612Z,100254.71
2018-03-31T20:06:40.248Z,100258.44
2018-03-31T20:09:06.889Z,100256.95
2018-03-31T20:11:34.329Z,100255.89
2018-03-31T20:14:01.211Z,100256.84
2018-03-31T20:16:27.802Z,100252.81
2018-03-31T20:18:54.381Z,100244.78
2018-03-31T20:21:21.797Z,100243.61
2018-03-31T20:23:48.486Z,100239.80
2018-03-31T20:26:15.183Z,100240.98
2018-03-31T20:28:42.639Z,100237.98
2018-03-31T20:31:09.237Z,100237.69
2018-03-31T20:33:35.880Z,100235.66
2018-03-31T20:36:02.487Z,100242.14
2018-03-31T20:38:29.985Z,100250.61
2018-03-31T20:40:56.589Z,100245.11
2018-03-31T20:43:23.426Z,100253.34
2018-03-31T20:45:51.663Z,100254.88
2018-03-31T20:48:18.292Z,100257.94
2018-03-31T20:50:44.941Z,100262.38
2018-03-31T20:53:12.533Z,100261.56
2018-03-31T20:55:40.056Z,100260.71
2018-03-31T20:58:06.722Z,100253.71
2018-03-31T21:00:34.696Z,100261.73
2018-03-31T21:03:01.317Z,100266.12
2018-03-31T21:05:27.966Z,100264.88
2018-03-31T21:07:55.280Z,100274.41
2018-03-31T21:10:21.872Z,100267.09
2018-03-31T21:12:48.637Z,100277.02
2018-03-31T21:15:16.153Z,100287.97
2018-03-31T21:17:43.548Z,100289.15
2018-03-31T21:20:10.285Z,100294.34
2018-03-31T21:22:36.895Z,100299.59
2018-03-31T21:25:03.588Z,100291.61
2018-03-31T21:27:30.144Z,100290.19
2018-03-31T21:29:57.596Z,100297.47
2018-03-31T21:32:25.045Z,100295.45
2018-03-31T21:34:51.774Z,100289.31
2018-03-31T21:37:19.224Z,100285.13
2018-03-31T21:39:45.923Z,100284.55
2018-03-31T21:42:13.699Z,100289.62
2018-03-31T21:44:41.124Z,100291.95
2018-03-31T21:47:07.681Z,100285.20
2018-03-31T21:49:35.137Z,100297.80
2018-03-31T21:52:02.512Z,100289.72
2018-03-31T21:54:29.823Z,100294.45
2018-03-31T21:56:56.600Z,100293.28
2018-03-31T21:59:23.332Z,100292.60
2018-03-31T22:01:50.164Z,100290.20
2018-03-31T22:04:16.837Z,100286.80
2018-03-31T22:06:43.507Z,100288.30
2018-03-31T22:09:11.649Z,100291.78
2018-03-31T22:11:38.400Z,100292.03
2018-03-31T22:17:10.089Z,100284.92
2018-03-31T22:19:38.543Z,100279.33
2018-03-31T22:22:05.249Z,100289.43
2018-03-31T22:24:31.898Z,100292.48
2018-03-31T22:26:59.237Z,100294.83
2018-03-31T22:29:25.852Z,100290.32
2018-03-31T22:31:53.179Z,100291.70
2018-03-31T22:34:20.592Z,100296.59
2018-03-31T22:36:47.149Z,100298.17
2018-03-31T22:39:13.733Z,100303.48
2018-03-31T22:41:40.359Z,100301.42
2018-03-31T22:44:07.763Z,100300.38
2018-03-31T22:46:35.109Z,100296.15
2018-03-31T22:49:01.846Z,100294.12
2018-03-31T22:51:29.311Z,100299.53
2018-03-31T22:53:56.056Z,100296.69
2018-03-31T22:56:22.692Z,100296.11
2018-03-31T22:58:49.300Z,100303.66
2018-03-31T23:01:16.369Z,100301.91
2018-03-31T23:03:43.044Z,100304.89
2018-03-31T23:06:09.675Z,100299.04
2018-03-31T23:08:36.282Z,100303.62
2018-03-31T23:11:03.780Z,100295.70
2018-03-31T23:13:30.453Z,100305.75
2018-03-31T23:15:57.168Z,100306.34
2018-03-31T23:18:24.665Z,100317.36
2018-03-31T23:20:52.206Z,100317.77
2018-03-31T23:23:20.425Z,100324.27
2018-03-31T23:25:47.231Z,100318.17
2018-03-31T23:28:14.181Z,100321.38
2018-03-31T23:30:40.810Z,100326.62
2018-03-31T23:33:07.776Z,100328.83
2018-03-31T23:35:34.511Z,100327.12
2018-03-31T23:38:01.167Z,100332.98
2018-03-31T23:40:28.643Z,100334.23
2018-03-31T23:42:56.090Z,100339.92
2018-03-31T23:45:22.698Z,100343.61
2018-03-31T23:47:50.209Z,100346.72
2018-03-31T23:50:17.564Z,100342.80
2018-03-31T23:52:45.674Z,100342.97
2018-03-31T23:55:12.276Z,100348.20
2018-03-31T23:57:38.906Z,100342.86
